createdAt,value
2019-02-11T00:00:00.425Z,100129.41
2019-02-11T00:02:32.676Z,100130.06
2019-02-11T00:05:04.930Z,100136.00
2019-02-11T00:07:37.116Z,100139.19
2019-02-11T00:10:09.296Z,100133.29
2019-02-11T00:12:42.505Z,100116.89
2019-02-11T00:15:14.856Z,100121.30
2019-02-11T00:17:46.996Z,100123.48
2019-02-11T00:20:19.160Z,100130.77
2019-02-11T00:22:51.319Z,100134.99
2019-02-11T00:25:23.488Z,100144.45
2019-02-11T00:27:55.636Z,100144.95
2019-02-11T00:30:27.669Z,100134.12
2019-02-11T00:32:59.737Z,100148.66
2019-02-11T00:35:31.837Z,100135.14
2019-02-11T00:38:04.060Z,100132.61
2019-02-11T00:40:36.141Z,100129.24
2019-02-11T00:43:08.273Z,100132.30
2019-02-11T00:45:41.481Z,100135.83
2019-02-11T00:48:13.626Z,100137.02
2019-02-11T00:50:45.948Z,100150.36
2019-02-11T00:53:18.260Z,100145.81
2019-02-11T00:55:50.568Z,100146.99
2019-02-11T00:58:22.707Z,100139.89
2019-02-11T01:00:55.093Z,100149.35
2019-02-11T01:03:27.320Z,100147.66
2019-02-11T01:05:59.565Z,100156.63
2019-02-11T01:08:31.665Z,100158.16
2019-02-11T01:11:03.896Z,100160.17
2019-02-11T01:13:36.199Z,100167.28
2019-02-11T01:16:08.523Z,100184.19
2019-02-11T01:18:40.655Z,100199.73
2019-02-11T01:21:12.985Z,100201.25
2019-02-11T01:23:45.028Z,100205.83
2019-02-11T01:26:18.322Z,100213.94
2019-02-11T01:28:50.455Z,100214.42
2019-02-11T01:31:22.589Z,100217.30
2019-02-11T01:33:54.685Z,100222.05
2019-02-11T01:36:26.923Z,100231.51
2019-02-11T01:38:59.119Z,100230.99
2019-02-11T01:41:31.330Z,100236.92
2019-02-11T01:44:03.638Z,100231.16
2019-02-11T01:46:35.794Z,100245.69
2019-02-11T01:49:07.990Z,100253.80
2019-02-11T01:51:40.622Z,100253.31
2019-02-11T01:54:12.699Z,100261.42
2019-02-11T01:56:44.898Z,100258.86
2019-02-11T01:59:17.070Z,100259.38
2019-02-11T02:01:49.229Z,100260.73
2019-02-11T02:04:21.560Z,100268.00
2019-02-11T02:06:53.768Z,100276.11
2019-02-11T02:09:26.108Z,100283.88
2019-02-11T02:11:58.213Z,100292.34
2019-02-11T02:14:30.366Z,100300.78
2019-02-11T02:17:02.555Z,100307.69
2019-02-11T02:19:35.653Z,100315.50
2019-02-11T02:22:07.891Z,100313.62
2019-02-11T02:24:40.050Z,100312.44
2019-02-11T02:27:12.220Z,100312.09
2019-02-11T02:29:44.337Z,100301.45
2019-02-11T02:32:17.575Z,100298.40
2019-02-11T02:34:49.906Z,100306.19
2019-02-11T02:37:23.015Z,100317.84
2019-02-11T02:39:55.297Z,100304.84
2019-02-11T02:42:27.663Z,100304.66
2019-02-11T02:44:59.814Z,100301.79
2019-02-11T02:47:32.120Z,100303.48
2019-02-11T02:50:04.283Z,100315.66
2019-02-11T02:52:36.454Z,100322.41
2019-02-11T02:55:08.603Z,100333.72
2019-02-11T02:57:41.235Z,100341.34
2019-02-11T03:00:13.337Z,100337.77
2019-02-11T03:02:45.764Z,100342.34
2019-02-11T03:05:17.811Z,100332.36
2019-02-11T03:07:50.121Z,100332.02
2019-02-11T03:10:22.205Z,100325.77
2019-02-11T03:12:54.445Z,100326.29
2019-02-11T03:15:26.605Z,100348.75
2019-02-11T03:17:59.193Z,100353.98
2019-02-11T03:20:31.405Z,100357.03
2019-02-11T03:23:03.685Z,100358.89
2019-02-11T03:25:35.697Z,100374.08
2019-02-11T03:28:08.102Z,100385.41
2019-02-11T03:30:41.633Z,100394.36
2019-02-11T03:33:14.786Z,100394.36
2019-02-11T03:35:47.169Z,100397.41
2019-02-11T03:38:19.344Z,100399.94
2019-02-11T03:40:51.473Z,100400.63
2019-02-11T03:43:23.588Z,100394.71
2019-02-11T03:45:56.924Z,100393.01
2019-02-11T03:48:29.051Z,100391.50
2019-02-11T03:51:02.285Z,100396.05
2019-02-11T03:53:34.590Z,100392.16
2019-02-11T03:56:06.935Z,100388.62
2019-02-11T03:58:39.149Z,100382.02
2019-02-11T04:01:11.537Z,100390.97
2019-02-11T04:03:43.592Z,100414.47
2019-02-11T04:06:15.816Z,100419.00
2019-02-11T04:08:48.016Z,100408.36
2019-02-11T04:11:20.242Z,100412.92
2019-02-11T04:13:52.698Z,100415.63
2019-02-11T04:16:24.916Z,100421.04
2019-02-11T04:18:57.443Z,100421.04
2019-02-11T04:21:30.674Z,100430.84
2019-02-11T04:24:03.504Z,100429.98
2019-02-11T04:26:35.822Z,100433.69
2019-02-11T04:29:08.142Z,100422.72
2019-02-11T04:31:41.393Z,100413.58
2019-02-11T04:34:13.599Z,100425.07
2019-02-11T04:36:45.709Z,100434.88
2019-02-11T04:39:17.919Z,100423.88
2019-02-11T04:41:51.249Z,100408.67
2019-02-11T04:44:33.648Z,100403.27
2019-02-11T04:46:59.131Z,100406.48
2019-02-11T04:49:31.538Z,100408.00
2019-02-11T04:52:03.832Z,100410.53
2019-02-11T04:54:36.015Z,100414.05
2019-02-11T04:57:08.160Z,100415.59
2019-02-11T04:59:40.312Z,100409.00
2019-02-11T05:02:12.899Z,100405.46
2019-02-11T05:04:45.228Z,100397.19
2019-02-11T05:07:18.508Z,100398.70
2019-02-11T05:09:51.046Z,100397.35
2019-02-11T05:12:23.426Z,100402.76
2019-02-11T05:14:55.742Z,100406.30
2019-02-11T05:17:27.832Z,100407.66
2019-02-11T05:20:00.195Z,100412.72
2019-02-11T05:22:34.442Z,100411.70
2019-02-11T05:25:06.778Z,100412.53
2019-02-11T05:27:39.015Z,100403.41
2019-02-11T05:30:11.569Z,100399.70
2019-02-11T05:32:45.181Z,100395.65
2019-02-11T05:35:18.379Z,100387.19
2019-02-11T05:37:50.771Z,100397.35
2019-02-11T05:40:23.029Z,100400.05
2019-02-11T05:42:55.275Z,100396.67
2019-02-11T05:45:27.704Z,100389.56
2019-02-11T05:47:59.805Z,100380.10
2019-02-11T05:50:32.112Z,100386.54
2019-02-11T05:53:04.232Z,100380.80
2019-02-11T05:55:36.404Z,100373.88
2019-02-11T05:58:08.588Z,100368.64
2019-02-11T06:00:41.787Z,100356.98
2019-02-11T06:03:13.928Z,100349.52
2019-02-11T06:05:45.911Z,100340.58
2019-02-11T06:08:18.103Z,100340.58
2019-02-11T06:10:51.132Z,100329.94
2019-02-11T06:13:23.393Z,100318.80
2019-02-11T06:15:55.446Z,100311.69
2019-02-11T06:18:28.559Z,100318.61
2019-02-11T06:21:00.700Z,100318.61
2019-02-11T06:23:32.897Z,100315.91
2019-02-11T06:26:04.976Z,100312.02
2019-02-11T06:28:37.114Z,100301.73
2019-02-11T06:31:09.329Z,100290.41
2019-02-11T06:33:41.445Z,100282.30
2019-02-11T06:36:14.796Z,100270.66
2019-02-11T06:38:46.944Z,100266.08
2019-02-11T06:41:19.156Z,100258.49
2019-02-11T06:43:51.455Z,100253.92
2019-02-11T06:46:23.524Z,100265.91
2019-02-11T06:48:55.645Z,100260.86
2019-02-11T06:51:28.871Z,100258.98
2019-02-11T06:54:01.025Z,100265.93
2019-02-11T06:56:33.170Z,100267.61
2019-02-11T06:59:05.468Z,100266.08
2019-02-11T07:01:37.523Z,100258.81
2019-02-11T07:04:09.805Z,100274.20
2019-02-11T07:06:43.062Z,100266.27
2019-02-11T07:09:15.171Z,100264.56
2019-02-11T07:11:47.700Z,100255.45
2019-02-11T07:14:20.880Z,100251.23
2019-02-11T07:16:52.936Z,100250.37
2019-02-11T07:19:25.331Z,100244.13
2019-02-11T07:21:57.616Z,100241.95
2019-02-11T07:24:29.941Z,100233.67
2019-02-11T07:27:02.213Z,100230.44
2019-02-11T07:29:34.764Z,100233.14
2019-02-11T07:32:07.952Z,100226.06
2019-02-11T07:34:40.219Z,100219.31
2019-02-11T07:37:12.464Z,100212.04
2019-02-11T07:39:44.585Z,100205.80
2019-02-11T07:42:38.233Z,100202.06
2019-02-11T07:45:29.670Z,100194.30
2019-02-11T07:47:56.155Z,100188.38
2019-02-11T07:50:31.182Z,100179.10
2019-02-11T07:53:03.408Z,100179.44
2019-02-11T07:55:35.423Z,100178.92
2019-02-11T07:58:07.661Z,100182.14
2019-02-11T08:00:39.757Z,100171.50
2019-02-11T08:03:11.931Z,100172.34
2019-02-11T08:05:44.425Z,100174.03
2019-02-11T08:08:17.440Z,100162.88
2019-02-11T08:10:49.597Z,100159.69
2019-02-11T08:13:21.932Z,100152.42
2019-02-11T08:15:53.926Z,100151.06
2019-02-11T08:18:26.073Z,100138.91
2019-02-11T08:21:00.221Z,100131.63
2019-02-11T08:23:32.517Z,100133.50
2019-02-11T08:26:06.671Z,100130.28
2019-02-11T08:28:38.797Z,100119.98
2019-02-11T08:31:10.963Z,100118.98
2019-02-11T08:33:44.066Z,100125.74
2019-02-11T08:36:16.532Z,100117.29
2019-02-11T08:38:48.759Z,100106.31
2019-02-11T08:41:21.081Z,100100.91
2019-02-11T08:43:53.561Z,100098.55
2019-02-11T08:46:26.157Z,100093.63
2019-02-11T08:48:58.629Z,100088.57
2019-02-11T08:51:31.001Z,100088.57
2019-02-11T08:54:04.046Z,100083.16
2019-02-11T08:56:37.398Z,100083.52
2019-02-11T08:59:09.905Z,100087.22
2019-02-11T09:01:42.124Z,100084.52
2019-02-11T09:04:18.961Z,100085.87
2019-02-11T09:06:48.527Z,100082.50
2019-02-11T09:09:21.245Z,100086.04
2019-02-11T09:11:53.431Z,100090.92
2019-02-11T09:14:25.672Z,100091.45
2019-02-11T09:16:57.924Z,100089.92
2019-02-11T09:19:30.312Z,100076.93
2019-02-11T09:22:07.549Z,100084.52
2019-02-11T09:24:36.493Z,100079.45
2019-02-11T09:27:08.689Z,100067.13
2019-02-11T09:29:41.984Z,100067.78
2019-02-11T09:32:14.045Z,100065.25
2019-02-11T09:34:46.463Z,100070.66
2019-02-11T09:37:20.736Z,100069.13
2019-02-11T09:39:52.925Z,100075.41
2019-02-11T09:42:24.962Z,100085.17
2019-02-11T09:44:57.295Z,100081.47
2019-02-11T09:47:29.486Z,100086.35
2019-02-11T09:50:14.400Z,100079.42
2019-02-11T09:52:46.610Z,100070.83
2019-02-11T09:55:24.185Z,100068.95
2019-02-11T09:57:56.499Z,100068.29
2019-02-11T10:00:28.702Z,100073.00
2019-02-11T10:03:00.899Z,100069.47
2019-02-11T10:05:33.486Z,100068.47
2019-02-11T10:08:05.780Z,100071.83
2019-02-11T10:10:38.510Z,100075.05
2019-02-11T10:13:10.922Z,100073.00
2019-02-11T10:15:43.115Z,100067.77
2019-02-11T10:18:16.247Z,100067.95
2019-02-11T10:20:48.438Z,100066.59
2019-02-11T10:23:20.610Z,100062.88
2019-02-11T10:25:52.952Z,100069.12
2019-02-11T10:28:25.060Z,100071.30
2019-02-11T10:30:57.314Z,100076.70
2019-02-11T10:33:29.837Z,100077.05
2019-02-11T10:36:01.911Z,100066.53
2019-02-11T10:38:36.545Z,100066.22
2019-02-11T10:41:07.905Z,100069.92
2019-02-11T10:43:40.286Z,100072.27
2019-02-11T10:46:20.664Z,100080.02
2019-02-11T10:48:48.812Z,100077.31
2019-02-11T10:51:23.010Z,100071.02
2019-02-11T10:53:55.294Z,100066.47
2019-02-11T10:56:28.468Z,100062.59
2019-02-11T10:59:00.904Z,100057.65
2019-02-11T11:01:34.052Z,100049.39
2019-02-11T11:04:06.522Z,100047.86
2019-02-11T11:06:38.849Z,100037.02
2019-02-11T11:09:13.152Z,100041.94
2019-02-11T11:11:45.389Z,100044.45
2019-02-11T11:14:17.832Z,100040.05
2019-02-11T11:16:50.275Z,100041.42
2019-02-11T11:19:22.786Z,100035.52
2019-02-11T11:21:55.018Z,100036.02
2019-02-11T11:24:28.305Z,100036.90
2019-02-11T11:27:00.585Z,100029.80
2019-02-11T11:29:33.196Z,100029.45
2019-02-11T11:32:07.389Z,100028.28
2019-02-11T11:34:40.037Z,100031.84
2019-02-11T11:37:13.519Z,100026.92
2019-02-11T11:39:45.901Z,100027.94
2019-02-11T11:42:18.546Z,100030.64
2019-02-11T11:44:50.799Z,100040.63
2019-02-11T11:47:24.294Z,100045.20
2019-02-11T11:49:56.542Z,100047.39
2019-02-11T11:52:28.970Z,100038.93
2019-02-11T11:55:01.168Z,100037.09
2019-02-11T11:57:33.820Z,100043.14
2019-02-11T12:00:06.781Z,100040.79
2019-02-11T12:02:39.194Z,100045.86
2019-02-11T12:05:11.486Z,100043.67
2019-02-11T12:07:43.758Z,100043.67
2019-02-11T12:10:17.193Z,100041.98
2019-02-11T12:12:49.355Z,100051.79
2019-02-11T12:15:22.957Z,100048.22
2019-02-11T12:17:55.282Z,100050.92
2019-02-11T12:20:32.953Z,100042.50
2019-02-11T12:23:04.504Z,100045.52
2019-02-11T12:25:36.705Z,100041.98
2019-02-11T12:28:08.845Z,100049.57
2019-02-11T12:30:41.258Z,100051.79
2019-02-11T12:33:13.301Z,100054.49
2019-02-11T12:35:45.461Z,100047.39
2019-02-11T12:38:17.641Z,100048.56
2019-02-11T12:40:49.750Z,100051.27
2019-02-11T12:43:22.071Z,100054.49
2019-02-11T12:45:54.619Z,100065.14
2019-02-11T12:48:28.209Z,100062.44
2019-02-11T12:51:00.588Z,100061.08
2019-02-11T12:53:34.009Z,100059.20
2019-02-11T12:56:07.190Z,100066.31
2019-02-11T12:58:39.349Z,100070.37
2019-02-11T13:01:11.549Z,100072.24
2019-02-11T13:03:43.703Z,100083.38
2019-02-11T13:06:16.098Z,100080.67
2019-02-11T13:08:48.221Z,100083.72
2019-02-11T13:11:20.286Z,100092.66
2019-02-11T13:13:52.474Z,100093.19
2019-02-11T13:16:26.939Z,100098.59
2019-02-11T13:19:00.218Z,100099.42
2019-02-11T13:21:32.437Z,100098.93
2019-02-11T13:24:04.833Z,100096.71
2019-02-11T13:26:36.988Z,100094.87
2019-02-11T13:29:09.383Z,100094.34
2019-02-11T13:31:41.501Z,100096.22
2019-02-11T13:34:16.004Z,100100.59
2019-02-11T13:36:48.167Z,100100.80
2019-02-11T13:39:20.335Z,100103.32
2019-02-11T13:41:53.461Z,100104.36
2019-02-11T13:44:25.739Z,100096.55
2019-02-11T13:46:59.805Z,100096.55
2019-02-11T13:49:32.006Z,100093.48
2019-02-11T13:52:05.331Z,100100.11
2019-02-11T13:54:37.500Z,100103.31
2019-02-11T13:57:09.783Z,100113.47
2019-02-11T13:59:42.156Z,100120.54
2019-02-11T14:02:14.457Z,100134.41
2019-02-11T14:04:46.786Z,100131.05
2019-02-11T14:07:19.238Z,100128.00
2019-02-11T14:09:53.540Z,100128.34
2019-02-11T14:12:26.207Z,100127.12
2019-02-11T14:14:58.447Z,100128.83
2019-02-11T14:17:30.597Z,100140.17
2019-02-11T14:20:05.375Z,100140.18
2019-02-11T14:22:37.848Z,100141.54
2019-02-11T14:25:10.001Z,100141.20
2019-02-11T14:27:43.268Z,100152.18
2019-02-11T14:30:15.929Z,100163.83
2019-02-11T14:32:49.338Z,100171.95
2019-02-11T14:35:22.993Z,100178.72
2019-02-11T14:37:55.417Z,100184.13
2019-02-11T14:40:27.911Z,100184.30
2019-02-11T14:43:00.415Z,100188.88
2019-02-11T14:45:32.955Z,100191.23
2019-02-11T14:48:05.326Z,100195.98
2019-02-11T14:50:37.980Z,100196.47
2019-02-11T14:53:10.331Z,100193.28
2019-02-11T14:55:42.741Z,100197.65
2019-02-11T14:58:14.968Z,100194.11
2019-02-11T15:00:47.378Z,100193.28
2019-02-11T15:03:19.633Z,100191.06
2019-02-11T15:05:51.802Z,100193.77
2019-02-11T15:08:23.895Z,100199.18
2019-02-11T15:10:56.202Z,100208.16
2019-02-11T15:13:28.394Z,100203.23
2019-02-11T15:16:00.663Z,100206.81
2019-02-11T15:18:34.529Z,100212.71
2019-02-11T15:21:07.800Z,100210.88
2019-02-11T15:23:40.081Z,100217.95
2019-02-11T15:26:15.205Z,100223.87
2019-02-11T15:28:47.707Z,100228.45
2019-02-11T15:31:19.906Z,100226.93
2019-02-11T15:33:53.972Z,100229.30
2019-02-11T15:36:26.134Z,100239.11
2019-02-11T15:38:59.461Z,100242.99
2019-02-11T15:41:31.864Z,100246.02
2019-02-11T15:44:04.105Z,100242.30
2019-02-11T15:46:36.233Z,100240.95
2019-02-11T15:49:08.869Z,100237.75
2019-02-11T15:51:42.030Z,100241.30
2019-02-11T15:54:14.293Z,100234.00
2019-02-11T15:56:46.669Z,100229.11
2019-02-11T15:59:18.874Z,100229.45
2019-02-11T16:01:51.420Z,100221.34
2019-02-11T16:04:23.513Z,100217.59
2019-02-11T16:06:56.905Z,100218.45
2019-02-11T16:09:29.094Z,100217.10
2019-02-11T16:12:01.551Z,100217.76
2019-02-11T16:14:33.915Z,100227.92
2019-02-11T16:17:06.363Z,100221.48
2019-02-11T16:19:40.639Z,100210.16
2019-02-11T16:22:13.888Z,100203.73
2019-02-11T16:24:46.221Z,100213.21
2019-02-11T16:27:18.397Z,100208.63
2019-02-11T16:29:50.608Z,100214.53
2019-02-11T16:32:22.999Z,100211.16
2019-02-11T16:34:55.403Z,100209.11
2019-02-11T16:37:28.727Z,100214.87
2019-02-11T16:40:01.067Z,100205.75
2019-02-11T16:42:33.443Z,100206.76
2019-02-11T16:45:05.626Z,100207.76
2019-02-11T16:47:38.111Z,100204.73
2019-02-11T16:50:10.549Z,100206.92
2019-02-11T16:52:43.697Z,100204.05
2019-02-11T16:55:15.901Z,100211.16
2019-02-11T16:57:48.225Z,100208.44
2019-02-11T17:00:20.479Z,100210.09
2019-02-11T17:02:52.864Z,100210.41
2019-02-11T17:05:25.153Z,100214.44
2019-02-11T17:07:57.504Z,100215.61
2019-02-11T17:10:29.882Z,100211.52
2019-02-11T17:13:01.973Z,100201.67
2019-02-11T17:15:34.275Z,100202.10
2019-02-11T17:18:06.451Z,100199.22
2019-02-11T17:20:38.967Z,100193.44
2019-02-11T17:23:11.257Z,100202.91
2019-02-11T17:25:43.524Z,100200.75
2019-02-11T17:28:15.828Z,100197.70
2019-02-11T17:30:48.255Z,100192.62
2019-02-11T17:33:20.474Z,100192.62
2019-02-11T17:35:52.879Z,100194.62
2019-02-11T17:38:25.299Z,100193.63
2019-02-11T17:40:57.606Z,100198.01
2019-02-11T17:43:29.742Z,100198.14
2019-02-11T17:46:02.113Z,100201.69
2019-02-11T17:48:34.316Z,100196.58
2019-02-11T17:51:06.620Z,100199.63
2019-02-11T17:53:39.377Z,100200.02
2019-02-11T17:56:11.626Z,100208.05
2019-02-11T17:58:44.010Z,100210.43
2019-02-11T18:01:16.630Z,100212.81
2019-02-11T18:03:48.869Z,100207.94
2019-02-11T18:06:21.511Z,100193.92
2019-02-11T18:08:54.002Z,100196.63
2019-02-11T18:11:26.244Z,100198.81
2019-02-11T18:13:58.918Z,100200.16
2019-02-11T18:16:31.193Z,100205.92
2019-02-11T18:19:03.719Z,100204.39
2019-02-11T18:21:35.913Z,100218.42
2019-02-11T18:24:08.462Z,100224.91
2019-02-11T18:26:40.591Z,100218.12
2019-02-11T18:29:13.127Z,100210.67
2019-02-11T18:31:45.453Z,100215.78
2019-02-11T18:34:17.827Z,100213.73
2019-02-11T18:36:50.340Z,100221.03
2019-02-11T18:39:22.561Z,100208.66
2019-02-11T18:41:54.972Z,100218.62
2019-02-11T18:44:28.336Z,100209.66
2019-02-11T18:47:00.690Z,100213.72
2019-02-11T18:49:34.554Z,100212.89
2019-02-11T18:52:07.083Z,100204.77
2019-02-11T18:54:39.822Z,100204.25
2019-02-11T18:57:11.982Z,100199.01
2019-02-11T18:59:44.353Z,100198.83
2019-02-11T19:02:16.595Z,100192.58
2019-02-11T19:04:48.929Z,100186.30
2019-02-11T19:07:21.505Z,100182.94
2019-02-11T19:09:53.815Z,100169.40
2019-02-11T19:12:25.905Z,100165.52
2019-02-11T19:14:58.239Z,100159.58
2019-02-11T19:17:30.518Z,100166.00
2019-02-11T19:20:02.744Z,100174.31
2019-02-11T19:22:35.126Z,100169.58
2019-02-11T19:25:07.844Z,100167.86
2019-02-11T19:27:40.078Z,100152.97
2019-02-11T19:30:14.222Z,100145.02
2019-02-11T19:32:46.440Z,100137.91
2019-02-11T19:35:18.881Z,100148.74
2019-02-11T19:37:51.256Z,100159.75
2019-02-11T19:40:23.637Z,100162.13
2019-02-11T19:42:55.930Z,100165.17
2019-02-11T19:45:28.473Z,100156.34
2019-02-11T19:48:00.543Z,100150.09
2019-02-11T19:50:32.854Z,100156.20
2019-02-11T19:53:05.321Z,100142.67
2019-02-11T19:55:37.809Z,100144.34
2019-02-11T19:58:10.153Z,100144.86
2019-02-11T20:00:42.679Z,100148.41
2019-02-11T20:03:14.762Z,100147.23
2019-02-11T20:05:47.189Z,100145.56
2019-02-11T20:08:19.503Z,100127.80
2019-02-11T20:10:51.801Z,100130.14
2019-02-11T20:13:24.140Z,100131.50
2019-02-11T20:15:56.267Z,100134.21
2019-02-11T20:18:28.559Z,100126.42
2019-02-11T20:21:00.720Z,100125.56
2019-02-11T20:23:34.549Z,100117.80
2019-02-11T20:26:06.754Z,100111.03
2019-02-11T20:28:38.919Z,100107.80
2019-02-11T20:31:11.245Z,100102.38
2019-02-11T20:33:43.576Z,100094.44
2019-02-11T20:36:15.944Z,100095.80
2019-02-11T20:38:48.356Z,100093.27
2019-02-11T20:41:20.819Z,100091.91
2019-02-11T20:43:53.004Z,100093.27
2019-02-11T20:46:25.398Z,100096.31
2019-02-11T20:48:57.615Z,100098.19
2019-02-11T20:51:29.793Z,100096.31
2019-02-11T20:54:02.305Z,100095.97
2019-02-11T20:56:35.132Z,100088.37
2019-02-11T20:59:08.540Z,100085.66
2019-02-11T21:01:41.445Z,100073.48
2019-02-11T21:04:13.586Z,100065.88
2019-02-11T21:06:45.793Z,100062.83
2019-02-11T21:09:17.892Z,100065.36
2019-02-11T21:11:50.177Z,100058.06
2019-02-11T21:14:22.324Z,100054.19
2019-02-11T21:16:54.705Z,100057.42
2019-02-11T21:19:26.930Z,100052.34
2019-02-11T21:21:59.225Z,100044.71
2019-02-11T21:24:31.452Z,100038.95
2019-02-11T21:27:03.716Z,100030.34
2019-02-11T21:29:35.785Z,100034.41
2019-02-11T21:32:08.039Z,100033.05
2019-02-11T21:34:40.118Z,100030.34
2019-02-11T21:37:12.303Z,100031.70
2019-02-11T21:39:44.506Z,100036.25
2019-02-11T21:42:16.689Z,100041.82
2019-02-11T21:44:48.728Z,100036.09
2019-02-11T21:47:20.852Z,100030.00
2019-02-11T21:49:52.951Z,100024.91
2019-02-11T21:52:25.200Z,100019.14
2019-02-11T21:54:57.458Z,100027.27
2019-02-11T21:57:29.739Z,100029.64
2019-02-11T22:00:01.989Z,100031.52
2019-02-11T22:02:35.198Z,100034.56
2019-02-11T22:05:07.377Z,100044.22
2019-02-11T22:07:39.572Z,100045.57
2019-02-11T22:10:12.344Z,100051.30
2019-02-11T22:12:44.611Z,100057.23
2019-02-11T22:15:17.044Z,100055.20
2019-02-11T22:17:49.324Z,100057.42
2019-02-11T22:20:21.554Z,100051.66
2019-02-11T22:22:53.888Z,100055.72
2019-02-11T22:25:26.217Z,100055.55
2019-02-11T22:27:58.476Z,100059.27
2019-02-11T22:30:30.754Z,100055.72
2019-02-11T22:33:02.967Z,100065.54
2019-02-11T22:35:35.209Z,100070.44
2019-02-11T22:38:07.349Z,100070.09
2019-02-11T22:40:39.532Z,100072.98
2019-02-11T22:43:11.825Z,100070.27
2019-02-11T22:45:44.045Z,100069.10
2019-02-11T22:48:16.357Z,100069.10
2019-02-11T22:50:48.539Z,100072.80
2019-02-11T22:53:20.933Z,100059.78
2019-02-11T22:55:53.024Z,100058.95
2019-02-11T22:58:25.203Z,100043.54
2019-02-11T23:01:02.359Z,100035.59
2019-02-11T23:03:34.701Z,100028.98
2019-02-11T23:06:07.062Z,100032.19
2019-02-11T23:08:40.184Z,100042.19
2019-02-11T23:11:12.363Z,100036.77
2019-02-11T23:13:44.560Z,100045.23
2019-02-11T23:16:16.714Z,100040.83
2019-02-11T23:18:49.007Z,100046.25
2019-02-11T23:21:21.129Z,100046.95
2019-02-11T23:23:53.366Z,100052.19
2019-02-11T23:26:25.461Z,100052.19
2019-02-11T23:28:57.688Z,100042.37
2019-02-11T23:31:29.787Z,100033.41
2019-02-11T23:34:01.974Z,100032.37
2019-02-11T23:36:34.191Z,100042.89
2019-02-11T23:39:08.149Z,100041.02
2019-02-11T23:41:40.277Z,100039.84
2019-02-11T23:44:12.387Z,100034.77
2019-02-11T23:46:44.472Z,100038.83
2019-02-11T23:49:16.737Z,100033.41
2019-02-11T23:51:48.936Z,100038.33
2019-02-11T23:54:21.208Z,100037.66
2019-02-11T23:56:53.352Z,100039.01
2019-02-11T23:59:25.923Z,100035.96
